sensor_id;sensor_type;location;lat;lon;timestamp;P1;durP1;ratioP1;P2;durP2;ratioP2
7495;SDS011;3789;47.064;15.482;2022-12-10T00:00:07;40.23;;;23.93;;
7495;SDS011;3789;47.064;15.482;2022-12-10T00:02:40;41.50;;;23.67;;
7495;SDS011;3789;47.064;15.482;2022-12-10T00:05:11;32.47;;;21.57;;
7495;SDS011;3789;47.064;15.482;2022-12-10T00:07:41;35.53;;;22.90;;
7495;SDS011;3789;47.064;15.482;2022-12-10T00:10:11;36.83;;;22.87;;
7495;SDS011;3789;47.064;15.482;2022-12-10T00:12:43;36.07;;;22.83;;
7495;SDS011;3789;47.064;15.482;2022-12-10T00:15:12;34.87;;;23.10;;
7495;SDS011;3789;47.064;15.482;2022-12-10T00:17:41;31.27;;;21.73;;
7495;SDS011;3789;47.064;15.482;2022-12-10T00:20:11;35.27;;;21.77;;
7495;SDS011;3789;47.064;15.482;2022-12-10T00:22:40;36.13;;;22.10;;
7495;SDS011;3789;47.064;15.482;2022-12-10T00:25:16;35.53;;;22.43;;
7495;SDS011;3789;47.064;15.482;2022-12-10T00:27:45;31.87;;;21.47;;
7495;SDS011;3789;47.064;15.482;2022-12-10T00:30:13;31.93;;;20.47;;
7495;SDS011;3789;47.064;15.482;2022-12-10T00:32:43;27.67;;;18.03;;
7495;SDS011;3789;47.064;15.482;2022-12-10T00:35:14;32.47;;;19.47;;
7495;SDS011;3789;47.064;15.482;2022-12-10T00:37:44;32.77;;;22.00;;
7495;SDS011;3789;47.064;15.482;2022-12-10T00:40:13;37.53;;;22.80;;
7495;SDS011;3789;47.064;15.482;2022-12-10T00:42:44;30.50;;;21.03;;
7495;SDS011;3789;47.064;15.482;2022-12-10T00:45:14;31.10;;;21.83;;
7495;SDS011;3789;47.064;15.482;2022-12-10T00:47:45;33.97;;;22.17;;
7495;SDS011;3789;47.064;15.482;2022-12-10T00:50:15;37.30;;;23.70;;
7495;SDS011;3789;47.064;15.482;2022-12-10T00:52:43;30.07;;;20.13;;
7495;SDS011;3789;47.064;15.482;2022-12-10T00:55:12;32.37;;;20.70;;
7495;SDS011;3789;47.064;15.482;2022-12-10T00:57:50;37.03;;;23.33;;
7495;SDS011;3789;47.064;15.482;2022-12-10T01:00:25;39.63;;;23.50;;
7495;SDS011;3789;47.064;15.482;2022-12-10T01:02:54;38.57;;;22.87;;
7495;SDS011;3789;47.064;15.482;2022-12-10T01:09:09;29.53;;;20.30;;
7495;SDS011;3789;47.064;15.482;2022-12-10T01:11:48;34.43;;;20.60;;
7495;SDS011;3789;47.064;15.482;2022-12-10T01:14:29;34.57;;;20.10;;
7495;SDS011;3789;47.064;15.482;2022-12-10T01:17:04;30.33;;;19.30;;
7495;SDS011;3789;47.064;15.482;2022-12-10T01:19:41;32.00;;;20.27;;
7495;SDS011;3789;47.064;15.482;2022-12-10T01:22:09;32.73;;;20.53;;
7495;SDS011;3789;47.064;15.482;2022-12-10T01:24:40;28.13;;;19.63;;
7495;SDS011;3789;47.064;15.482;2022-12-10T01:27:12;35.43;;;22.10;;
7495;SDS011;3789;47.064;15.482;2022-12-10T01:29:42;32.27;;;20.70;;
7495;SDS011;3789;47.064;15.482;2022-12-10T01:32:11;33.93;;;21.57;;
7495;SDS011;3789;47.064;15.482;2022-12-10T01:34:41;30.97;;;19.60;;
7495;SDS011;3789;47.064;15.482;2022-12-10T01:37:09;29.90;;;20.70;;
7495;SDS011;3789;47.064;15.482;2022-12-10T01:39:37;31.10;;;20.23;;
7495;SDS011;3789;47.064;15.482;2022-12-10T01:42:09;24.37;;;17.73;;
7495;SDS011;3789;47.064;15.482;2022-12-10T01:47:12;18.47;;;13.57;;
7495;SDS011;3789;47.064;15.482;2022-12-10T01:49:43;19.90;;;13.43;;
7495;SDS011;3789;47.064;15.482;2022-12-10T01:52:12;18.90;;;13.20;;
7495;SDS011;3789;47.064;15.482;2022-12-10T01:54:44;99.87;;;39.70;;
7495;SDS011;3789;47.064;15.482;2022-12-10T01:57:30;80.47;;;33.63;;
7495;SDS011;3789;47.064;15.482;2022-12-10T02:00:02;58.90;;;27.17;;
7495;SDS011;3789;47.064;15.482;2022-12-10T02:02:36;31.00;;;19.63;;
7495;SDS011;3789;47.064;15.482;2022-12-10T02:05:37;23.60;;;15.20;;
7495;SDS011;3789;47.064;15.482;2022-12-10T02:08:32;18.20;;;13.43;;
7495;SDS011;3789;47.064;15.482;2022-12-10T02:11:22;20.70;;;13.77;;
7495;SDS011;3789;47.064;15.482;2022-12-10T02:14:23;22.00;;;14.30;;
7495;SDS011;3789;47.064;15.482;2022-12-10T02:16:59;20.80;;;14.13;;
7495;SDS011;3789;47.064;15.482;2022-12-10T02:22:42;22.13;;;12.70;;
7495;SDS011;3789;47.064;15.482;2022-12-10T02:25:40;20.23;;;12.40;;
7495;SDS011;3789;47.064;15.482;2022-12-10T02:36:45;17.03;;;11.20;;
7495;SDS011;3789;47.064;15.482;2022-12-10T02:39:16;37.83;;;21.13;;
7495;SDS011;3789;47.064;15.482;2022-12-10T02:41:50;36.13;;;21.33;;
7495;SDS011;3789;47.064;15.482;2022-12-10T02:44:24;31.90;;;18.23;;
7495;SDS011;3789;47.064;15.482;2022-12-10T02:46:57;25.17;;;16.20;;
7495;SDS011;3789;47.064;15.482;2022-12-10T02:49:27;25.37;;;16.17;;
7495;SDS011;3789;47.064;15.482;2022-12-10T02:52:09;29.17;;;17.23;;
7495;SDS011;3789;47.064;15.482;2022-12-10T02:54:43;27.70;;;17.37;;
7495;SDS011;3789;47.064;15.482;2022-12-10T03:00:09;30.17;;;17.57;;
7495;SDS011;3789;47.064;15.482;2022-12-10T03:03:01;27.50;;;15.53;;
7495;SDS011;3789;47.064;15.482;2022-12-10T03:06:07;26.03;;;15.60;;
7495;SDS011;3789;47.064;15.482;2022-12-10T03:09:02;26.40;;;16.03;;
7495;SDS011;3789;47.064;15.482;2022-12-10T03:11:34;24.70;;;16.23;;
7495;SDS011;3789;47.064;15.482;2022-12-10T03:14:19;76.73;;;21.27;;
7495;SDS011;3789;47.064;15.482;2022-12-10T03:16:54;59.27;;;21.77;;
7495;SDS011;3789;47.064;15.482;2022-12-10T03:19:32;47.67;;;20.93;;
7495;SDS011;3789;47.064;15.482;2022-12-10T03:22:07;31.03;;;17.73;;
7495;SDS011;3789;47.064;15.482;2022-12-10T03:24:50;34.03;;;16.80;;
7495;SDS011;3789;47.064;15.482;2022-12-10T03:27:21;34.13;;;17.13;;
7495;SDS011;3789;47.064;15.482;2022-12-10T03:29:54;39.80;;;18.37;;
7495;SDS011;3789;47.064;15.482;2022-12-10T03:32:28;176.63;;;28.33;;
7495;SDS011;3789;47.064;15.482;2022-12-10T03:34:58;35.10;;;14.90;;
7495;SDS011;3789;47.064;15.482;2022-12-10T03:37:28;19.03;;;12.53;;
7495;SDS011;3789;47.064;15.482;2022-12-10T03:40:04;21.83;;;13.57;;
7495;SDS011;3789;47.064;15.482;2022-12-10T03:42:37;26.43;;;15.03;;
7495;SDS011;3789;47.064;15.482;2022-12-10T03:45:13;29.10;;;15.83;;
7495;SDS011;3789;47.064;15.482;2022-12-10T03:47:52;29.87;;;16.53;;
7495;SDS011;3789;47.064;15.482;2022-12-10T03:50:27;44.33;;;23.27;;
7495;SDS011;3789;47.064;15.482;2022-12-10T03:52:54;30.43;;;17.90;;
7495;SDS011;3789;47.064;15.482;2022-12-10T03:55:23;24.77;;;14.27;;
7495;SDS011;3789;47.064;15.482;2022-12-10T03:57:51;30.33;;;16.60;;
7495;SDS011;3789;47.064;15.482;2022-12-10T04:00:19;25.53;;;14.07;;
7495;SDS011;3789;47.064;15.482;2022-12-10T04:02:47;24.90;;;14.53;;
7495;SDS011;3789;47.064;15.482;2022-12-10T04:05:17;31.03;;;16.43;;
7495;SDS011;3789;47.064;15.482;2022-12-10T04:07:45;28.53;;;16.83;;
7495;SDS011;3789;47.064;15.482;2022-12-10T04:10:14;30.83;;;18.03;;
7495;SDS011;3789;47.064;15.482;2022-12-10T04:12:47;58.43;;;28.30;;
7495;SDS011;3789;47.064;15.482;2022-12-10T04:15:40;34.17;;;17.27;;
7495;SDS011;3789;47.064;15.482;2022-12-10T04:18:27;31.93;;;17.43;;
7495;SDS011;3789;47.064;15.482;2022-12-10T04:20:57;43.40;;;24.50;;
7495;SDS011;3789;47.064;15.482;2022-12-10T04:23:46;41.70;;;21.60;;
7495;SDS011;3789;47.064;15.482;2022-12-10T04:26:35;48.47;;;28.03;;
7495;SDS011;3789;47.064;15.482;2022-12-10T04:29:24;35.97;;;19.70;;
7495;SDS011;3789;47.064;15.482;2022-12-10T04:31:57;33.70;;;17.93;;
7495;SDS011;3789;47.064;15.482;2022-12-10T04:34:24;37.03;;;19.23;;
7495;SDS011;3789;47.064;15.482;2022-12-10T04:36:57;46.87;;;23.70;;
7495;SDS011;3789;47.064;15.482;2022-12-10T04:39:32;42.87;;;23.17;;
7495;SDS011;3789;47.064;15.482;2022-12-10T04:42:01;44.60;;;23.60;;
7495;SDS011;3789;47.064;15.482;2022-12-10T04:44:41;57.47;;;25.23;;
7495;SDS011;3789;47.064;15.482;2022-12-10T04:47:12;40.23;;;22.83;;
7495;SDS011;3789;47.064;15.482;2022-12-10T04:49:41;47.33;;;24.43;;
7495;SDS011;3789;47.064;15.482;2022-12-10T04:52:11;70.40;;;28.33;;
7495;SDS011;3789;47.064;15.482;2022-12-10T04:54:43;65.37;;;30.77;;
7495;SDS011;3789;47.064;15.482;2022-12-10T04:57:13;71.33;;;30.43;;
7495;SDS011;3789;47.064;15.482;2022-12-10T04:59:41;65.40;;;30.87;;
7495;SDS011;3789;47.064;15.482;2022-12-10T05:02:17;75.13;;;29.87;;
7495;SDS011;3789;47.064;15.482;2022-12-10T05:04:48;70.57;;;31.23;;
7495;SDS011;3789;47.064;15.482;2022-12-10T05:07:17;66.77;;;29.70;;
7495;SDS011;3789;47.064;15.482;2022-12-10T05:09:44;72.83;;;30.60;;
7495;SDS011;3789;47.064;15.482;2022-12-10T05:12:11;68.50;;;31.53;;
7495;SDS011;3789;47.064;15.482;2022-12-10T05:14:41;63.73;;;29.67;;
7495;SDS011;3789;47.064;15.482;2022-12-10T05:17:12;60.90;;;29.90;;
7495;SDS011;3789;47.064;15.482;2022-12-10T05:19:41;69.77;;;32.43;;
7495;SDS011;3789;47.064;15.482;2022-12-10T05:22:09;63.33;;;30.50;;
7495;SDS011;3789;47.064;15.482;2022-12-10T05:25:00;61.47;;;30.10;;
7495;SDS011;3789;47.064;15.482;2022-12-10T05:27:38;62.90;;;29.80;;
7495;SDS011;3789;47.064;15.482;2022-12-10T05:30:09;58.27;;;28.70;;
7495;SDS011;3789;47.064;15.482;2022-12-10T05:32:41;57.67;;;28.73;;
7495;SDS011;3789;47.064;15.482;2022-12-10T05:35:11;56.33;;;28.40;;
7495;SDS011;3789;47.064;15.482;2022-12-10T05:37:42;49.10;;;21.80;;
7495;SDS011;3789;47.064;15.482;2022-12-10T05:40:11;57.47;;;24.67;;
7495;SDS011;3789;47.064;15.482;2022-12-10T05:42:40;42.07;;;24.90;;
7495;SDS011;3789;47.064;15.482;2022-12-10T05:45:10;36.70;;;21.80;;
7495;SDS011;3789;47.064;15.482;2022-12-10T05:47:39;31.00;;;18.40;;
7495;SDS011;3789;47.064;15.482;2022-12-10T05:50:10;53.93;;;26.83;;
7495;SDS011;3789;47.064;15.482;2022-12-10T05:52:39;57.23;;;25.40;;
7495;SDS011;3789;47.064;15.482;2022-12-10T05:55:18;37.00;;;19.60;;
7495;SDS011;3789;47.064;15.482;2022-12-10T05:57:49;44.03;;;24.07;;
7495;SDS011;3789;47.064;15.482;2022-12-10T06:00:19;32.57;;;19.03;;
7495;SDS011;3789;47.064;15.482;2022-12-10T06:02:51;41.50;;;24.23;;
7495;SDS011;3789;47.064;15.482;2022-12-10T06:05:27;40.77;;;22.97;;
7495;SDS011;3789;47.064;15.482;2022-12-10T06:07:58;51.60;;;25.17;;
7495;SDS011;3789;47.064;15.482;2022-12-10T06:10:26;44.97;;;24.00;;
7495;SDS011;3789;47.064;15.482;2022-12-10T06:12:54;48.23;;;25.03;;
7495;SDS011;3789;47.064;15.482;2022-12-10T06:15:23;35.93;;;20.13;;
7495;SDS011;3789;47.064;15.482;2022-12-10T06:17:51;50.00;;;26.13;;
7495;SDS011;3789;47.064;15.482;2022-12-10T06:20:23;41.60;;;24.37;;
7495;SDS011;3789;47.064;15.482;2022-12-10T06:22:55;44.87;;;25.00;;
7495;SDS011;3789;47.064;15.482;2022-12-10T06:25:23;54.67;;;26.53;;
7495;SDS011;3789;47.064;15.482;2022-12-10T06:27:52;43.73;;;26.17;;
7495;SDS011;3789;47.064;15.482;2022-12-10T06:30:22;65.93;;;37.60;;
7495;SDS011;3789;47.064;15.482;2022-12-10T06:32:54;60.13;;;34.20;;
7495;SDS011;3789;47.064;15.482;2022-12-10T06:35:31;62.23;;;34.23;;
7495;SDS011;3789;47.064;15.482;2022-12-10T06:38:00;48.10;;;28.57;;
7495;SDS011;3789;47.064;15.482;2022-12-10T06:40:38;49.07;;;25.73;;
7495;SDS011;3789;47.064;15.482;2022-12-10T06:43:10;46.73;;;27.40;;
7495;SDS011;3789;47.064;15.482;2022-12-10T06:45:59;50.23;;;26.17;;
7495;SDS011;3789;47.064;15.482;2022-12-10T06:48:40;49.50;;;24.10;;
7495;SDS011;3789;47.064;15.482;2022-12-10T06:51:09;42.77;;;25.70;;
7495;SDS011;3789;47.064;15.482;2022-12-10T06:53:47;43.87;;;22.43;;
7495;SDS011;3789;47.064;15.482;2022-12-10T06:56:17;39.67;;;23.07;;
7495;SDS011;3789;47.064;15.482;2022-12-10T06:58:47;34.70;;;19.87;;
7495;SDS011;3789;47.064;15.482;2022-12-10T07:01:21;71.53;;;24.90;;
7495;SDS011;3789;47.064;15.482;2022-12-10T07:03:58;70.73;;;30.77;;
7495;SDS011;3789;47.064;15.482;2022-12-10T07:06:30;53.83;;;32.37;;
7495;SDS011;3789;47.064;15.482;2022-12-10T07:09:00;49.97;;;31.30;;
7495;SDS011;3789;47.064;15.482;2022-12-10T07:11:29;46.80;;;28.67;;
7495;SDS011;3789;47.064;15.482;2022-12-10T07:14:11;48.47;;;28.13;;
7495;SDS011;3789;47.064;15.482;2022-12-10T07:16:43;41.13;;;27.80;;
7495;SDS011;3789;47.064;15.482;2022-12-10T07:19:12;37.67;;;25.97;;
7495;SDS011;3789;47.064;15.482;2022-12-10T07:21:41;36.27;;;24.40;;
7495;SDS011;3789;47.064;15.482;2022-12-10T07:24:13;38.60;;;22.90;;
7495;SDS011;3789;47.064;15.482;2022-12-10T07:26:42;33.10;;;22.13;;
7495;SDS011;3789;47.064;15.482;2022-12-10T07:29:22;33.83;;;22.07;;
7495;SDS011;3789;47.064;15.482;2022-12-10T07:31:54;38.53;;;21.43;;
7495;SDS011;3789;47.064;15.482;2022-12-10T07:34:30;29.70;;;19.10;;
7495;SDS011;3789;47.064;15.482;2022-12-10T07:37:01;29.30;;;17.50;;
7495;SDS011;3789;47.064;15.482;2022-12-10T07:39:29;24.13;;;15.90;;
7495;SDS011;3789;47.064;15.482;2022-12-10T07:41:59;22.30;;;15.30;;
7495;SDS011;3789;47.064;15.482;2022-12-10T07:44:27;22.80;;;15.97;;
7495;SDS011;3789;47.064;15.482;2022-12-10T07:46:56;36.83;;;21.53;;
7495;SDS011;3789;47.064;15.482;2022-12-10T07:49:26;33.53;;;21.33;;
7495;SDS011;3789;47.064;15.482;2022-12-10T07:51:55;33.93;;;21.33;;
7495;SDS011;3789;47.064;15.482;2022-12-10T07:54:27;35.43;;;22.60;;
7495;SDS011;3789;47.064;15.482;2022-12-10T07:56:56;32.23;;;21.27;;
7495;SDS011;3789;47.064;15.482;2022-12-10T07:59:27;28.97;;;20.13;;
7495;SDS011;3789;47.064;15.482;2022-12-10T08:02:03;34.83;;;20.33;;
7495;SDS011;3789;47.064;15.482;2022-12-10T08:04:41;34.40;;;20.40;;
7495;SDS011;3789;47.064;15.482;2022-12-10T08:07:09;29.57;;;17.30;;
7495;SDS011;3789;47.064;15.482;2022-12-10T08:09:40;24.27;;;15.33;;
7495;SDS011;3789;47.064;15.482;2022-12-10T08:12:08;25.97;;;15.27;;
7495;SDS011;3789;47.064;15.482;2022-12-10T08:14:36;20.93;;;14.10;;
7495;SDS011;3789;47.064;15.482;2022-12-10T08:17:06;22.83;;;13.33;;
7495;SDS011;3789;47.064;15.482;2022-12-10T08:19:35;23.07;;;13.20;;
7495;SDS011;3789;47.064;15.482;2022-12-10T08:22:03;26.07;;;14.40;;
7495;SDS011;3789;47.064;15.482;2022-12-10T08:24:32;22.67;;;14.33;;
7495;SDS011;3789;47.064;15.482;2022-12-10T08:27:00;19.77;;;13.40;;
7495;SDS011;3789;47.064;15.482;2022-12-10T08:29:27;21.77;;;13.67;;
7495;SDS011;3789;47.064;15.482;2022-12-10T08:31:56;22.27;;;13.03;;
7495;SDS011;3789;47.064;15.482;2022-12-10T08:34:25;17.57;;;11.80;;
7495;SDS011;3789;47.064;15.482;2022-12-10T08:36:55;21.50;;;12.93;;
7495;SDS011;3789;47.064;15.482;2022-12-10T08:39:26;20.17;;;11.70;;
7495;SDS011;3789;47.064;15.482;2022-12-10T08:41:58;22.00;;;12.97;;
7495;SDS011;3789;47.064;15.482;2022-12-10T08:44:26;21.63;;;12.33;;
7495;SDS011;3789;47.064;15.482;2022-12-10T08:46:57;16.03;;;11.00;;
7495;SDS011;3789;47.064;15.482;2022-12-10T08:49:25;21.40;;;12.20;;
7495;SDS011;3789;47.064;15.482;2022-12-10T08:51:54;21.50;;;11.97;;
7495;SDS011;3789;47.064;15.482;2022-12-10T08:54:23;21.57;;;12.70;;
7495;SDS011;3789;47.064;15.482;2022-12-10T08:56:52;21.13;;;14.27;;
7495;SDS011;3789;47.064;15.482;2022-12-10T08:59:24;19.50;;;12.53;;
7495;SDS011;3789;47.064;15.482;2022-12-10T09:01:54;20.73;;;12.77;;
7495;SDS011;3789;47.064;15.482;2022-12-10T09:04:30;20.27;;;12.87;;
7495;SDS011;3789;47.064;15.482;2022-12-10T09:07:00;22.23;;;14.13;;
7495;SDS011;3789;47.064;15.482;2022-12-10T09:09:32;20.90;;;12.33;;
7495;SDS011;3789;47.064;15.482;2022-12-10T09:12:01;14.37;;;9.67;;
7495;SDS011;3789;47.064;15.482;2022-12-10T09:14:31;15.37;;;9.63;;
7495;SDS011;3789;47.064;15.482;2022-12-10T09:17:03;11.47;;;8.80;;
7495;SDS011;3789;47.064;15.482;2022-12-10T09:19:32;9.60;;;7.73;;
7495;SDS011;3789;47.064;15.482;2022-12-10T09:22:01;10.27;;;6.83;;
7495;SDS011;3789;47.064;15.482;2022-12-10T09:24:29;10.60;;;7.60;;
7495;SDS011;3789;47.064;15.482;2022-12-10T09:26:57;9.80;;;7.03;;
7495;SDS011;3789;47.064;15.482;2022-12-10T09:29:27;9.83;;;7.50;;
7495;SDS011;3789;47.064;15.482;2022-12-10T09:31:57;14.30;;;8.33;;
7495;SDS011;3789;47.064;15.482;2022-12-10T09:34:26;12.07;;;9.50;;
7495;SDS011;3789;47.064;15.482;2022-12-10T09:36:55;12.63;;;8.80;;
7495;SDS011;3789;47.064;15.482;2022-12-10T09:39:26;11.13;;;8.00;;
7495;SDS011;3789;47.064;15.482;2022-12-10T09:42:06;9.63;;;8.00;;
7495;SDS011;3789;47.064;15.482;2022-12-10T09:51:10;11.20;;;8.40;;
7495;SDS011;3789;47.064;15.482;2022-12-10T09:53:43;13.03;;;9.37;;
7495;SDS011;3789;47.064;15.482;2022-12-10T09:56:19;12.00;;;8.53;;
7495;SDS011;3789;47.064;15.482;2022-12-10T09:58:49;12.80;;;7.90;;
7495;SDS011;3789;47.064;15.482;2022-12-10T10:01:23;11.77;;;8.33;;
7495;SDS011;3789;47.064;15.482;2022-12-10T10:04:02;13.83;;;8.40;;
7495;SDS011;3789;47.064;15.482;2022-12-10T10:06:30;18.50;;;8.57;;
7495;SDS011;3789;47.064;15.482;2022-12-10T10:09:01;16.50;;;7.97;;
7495;SDS011;3789;47.064;15.482;2022-12-10T10:11:34;9.07;;;6.23;;
7495;SDS011;3789;47.064;15.482;2022-12-10T10:14:17;14.13;;;8.23;;
7495;SDS011;3789;47.064;15.482;2022-12-10T10:16:59;12.87;;;9.03;;
7495;SDS011;3789;47.064;15.482;2022-12-10T10:20:05;14.70;;;9.10;;
7495;SDS011;3789;47.064;15.482;2022-12-10T10:22:42;11.27;;;8.03;;
7495;SDS011;3789;47.064;15.482;2022-12-10T10:25:22;16.03;;;10.97;;
7495;SDS011;3789;47.064;15.482;2022-12-10T10:27:52;14.87;;;9.43;;
7495;SDS011;3789;47.064;15.482;2022-12-10T10:30:26;13.70;;;9.23;;
7495;SDS011;3789;47.064;15.482;2022-12-10T10:32:57;14.93;;;10.40;;
7495;SDS011;3789;47.064;15.482;2022-12-10T10:35:46;16.40;;;10.83;;
7495;SDS011;3789;47.064;15.482;2022-12-10T10:38:28;18.00;;;10.77;;
7495;SDS011;3789;47.064;15.482;2022-12-10T10:41:04;14.77;;;10.33;;
7495;SDS011;3789;47.064;15.482;2022-12-10T10:43:39;14.67;;;10.57;;
7495;SDS011;3789;47.064;15.482;2022-12-10T10:46:23;14.43;;;9.57;;
7495;SDS011;3789;47.064;15.482;2022-12-10T10:48:52;13.30;;;10.43;;
7495;SDS011;3789;47.064;15.482;2022-12-10T10:51:52;12.90;;;9.67;;
7495;SDS011;3789;47.064;15.482;2022-12-10T10:54:33;10.90;;;9.20;;
7495;SDS011;3789;47.064;15.482;2022-12-10T11:00:23;10.47;;;7.57;;
7495;SDS011;3789;47.064;15.482;2022-12-10T11:02:53;8.50;;;7.50;;
7495;SDS011;3789;47.064;15.482;2022-12-10T11:05:33;8.43;;;7.43;;
7495;SDS011;3789;47.064;15.482;2022-12-10T11:08:03;8.80;;;7.53;;
7495;SDS011;3789;47.064;15.482;2022-12-10T11:10:45;8.80;;;6.70;;
7495;SDS011;3789;47.064;15.482;2022-12-10T11:13:26;8.90;;;7.00;;
7495;SDS011;3789;47.064;15.482;2022-12-10T11:21:23;7.67;;;6.40;;
7495;SDS011;3789;47.064;15.482;2022-12-10T11:23:53;9.30;;;7.83;;
7495;SDS011;3789;47.064;15.482;2022-12-10T11:38:45;9.20;;;7.13;;
7495;SDS011;3789;47.064;15.482;2022-12-10T11:41:58;7.83;;;6.67;;
7495;SDS011;3789;47.064;15.482;2022-12-10T11:50:20;7.53;;;6.57;;
7495;SDS011;3789;47.064;15.482;2022-12-10T11:53:06;8.17;;;7.00;;
7495;SDS011;3789;47.064;15.482;2022-12-10T12:17:37;7.70;;;6.57;;
7495;SDS011;3789;47.064;15.482;2022-12-10T12:20:16;8.27;;;7.33;;
7495;SDS011;3789;47.064;15.482;2022-12-10T12:22:45;10.47;;;8.03;;
7495;SDS011;3789;47.064;15.482;2022-12-10T12:25:20;9.93;;;7.20;;
7495;SDS011;3789;47.064;15.482;2022-12-10T12:28:00;7.83;;;6.67;;
7495;SDS011;3789;47.064;15.482;2022-12-10T12:30:37;8.23;;;6.50;;
7495;SDS011;3789;47.064;15.482;2022-12-10T12:33:32;8.60;;;7.13;;
7495;SDS011;3789;47.064;15.482;2022-12-10T12:36:21;8.20;;;6.30;;
7495;SDS011;3789;47.064;15.482;2022-12-10T12:42:16;9.70;;;6.83;;
7495;SDS011;3789;47.064;15.482;2022-12-10T12:45:13;8.33;;;6.77;;
7495;SDS011;3789;47.064;15.482;2022-12-10T12:51:12;8.27;;;6.60;;
7495;SDS011;3789;47.064;15.482;2022-12-10T12:54:11;7.33;;;6.13;;
7495;SDS011;3789;47.064;15.482;2022-12-10T13:05:14;8.37;;;7.10;;
7495;SDS011;3789;47.064;15.482;2022-12-10T13:08:24;10.13;;;6.70;;
7495;SDS011;3789;47.064;15.482;2022-12-10T13:24:46;11.03;;;7.73;;
7495;SDS011;3789;47.064;15.482;2022-12-10T13:27:33;8.17;;;6.70;;
7495;SDS011;3789;47.064;15.482;2022-12-10T13:30:48;7.77;;;6.37;;
7495;SDS011;3789;47.064;15.482;2022-12-10T13:33:19;7.70;;;6.33;;
7495;SDS011;3789;47.064;15.482;2022-12-10T13:35:55;10.00;;;8.17;;
7495;SDS011;3789;47.064;15.482;2022-12-10T13:38:40;7.10;;;5.83;;
7495;SDS011;3789;47.064;15.482;2022-12-10T13:41:23;9.27;;;6.77;;
7495;SDS011;3789;47.064;15.482;2022-12-10T14:08:28;5.50;;;4.93;;
7495;SDS011;3789;47.064;15.482;2022-12-10T14:11:01;5.23;;;4.43;;
7495;SDS011;3789;47.064;15.482;2022-12-10T14:13:38;5.13;;;4.63;;
7495;SDS011;3789;47.064;15.482;2022-12-10T14:16:44;6.00;;;4.63;;
7495;SDS011;3789;47.064;15.482;2022-12-10T14:19:15;5.77;;;5.20;;
7495;SDS011;3789;47.064;15.482;2022-12-10T14:22:04;6.00;;;5.27;;
7495;SDS011;3789;47.064;15.482;2022-12-10T14:24:41;5.43;;;4.83;;
7495;SDS011;3789;47.064;15.482;2022-12-10T14:27:24;5.97;;;5.23;;
7495;SDS011;3789;47.064;15.482;2022-12-10T14:29:58;6.60;;;5.80;;
7495;SDS011;3789;47.064;15.482;2022-12-10T14:33:01;5.97;;;5.30;;
7495;SDS011;3789;47.064;15.482;2022-12-10T14:35:49;6.40;;;5.73;;
7495;SDS011;3789;47.064;15.482;2022-12-10T14:38:29;7.40;;;5.93;;
7495;SDS011;3789;47.064;15.482;2022-12-10T14:41:01;7.43;;;5.90;;
7495;SDS011;3789;47.064;15.482;2022-12-10T14:43:37;7.37;;;6.43;;
7495;SDS011;3789;47.064;15.482;2022-12-10T14:46:29;6.53;;;5.80;;
7495;SDS011;3789;47.064;15.482;2022-12-10T14:49:00;7.80;;;6.93;;
7495;SDS011;3789;47.064;15.482;2022-12-10T14:51:36;7.73;;;6.37;;
7495;SDS011;3789;47.064;15.482;2022-12-10T14:54:05;7.07;;;5.77;;
7495;SDS011;3789;47.064;15.482;2022-12-10T14:57:05;8.33;;;6.17;;
7495;SDS011;3789;47.064;15.482;2022-12-10T14:59:49;6.87;;;6.17;;
7495;SDS011;3789;47.064;15.482;2022-12-10T15:02:29;8.17;;;6.60;;
7495;SDS011;3789;47.064;15.482;2022-12-10T15:05:01;6.00;;;5.00;;
7495;SDS011;3789;47.064;15.482;2022-12-10T15:08:07;5.03;;;4.53;;
7495;SDS011;3789;47.064;15.482;2022-12-10T15:10:50;6.27;;;5.13;;
7495;SDS011;3789;47.064;15.482;2022-12-10T15:13:46;5.53;;;5.03;;
7495;SDS011;3789;47.064;15.482;2022-12-10T15:16:19;5.10;;;4.60;;
7495;SDS011;3789;47.064;15.482;2022-12-10T15:19:34;5.83;;;5.33;;
7495;SDS011;3789;47.064;15.482;2022-12-10T15:22:24;6.03;;;5.43;;
7495;SDS011;3789;47.064;15.482;2022-12-10T15:24:54;6.70;;;5.03;;
7495;SDS011;3789;47.064;15.482;2022-12-10T15:27:23;5.43;;;4.93;;
7495;SDS011;3789;47.064;15.482;2022-12-10T15:29:54;6.33;;;4.97;;
7495;SDS011;3789;47.064;15.482;2022-12-10T15:32:26;6.00;;;5.00;;
7495;SDS011;3789;47.064;15.482;2022-12-10T15:35:03;6.23;;;5.40;;
7495;SDS011;3789;47.064;15.482;2022-12-10T15:37:45;9.70;;;6.83;;
7495;SDS011;3789;47.064;15.482;2022-12-10T15:40:29;7.40;;;6.33;;
7495;SDS011;3789;47.064;15.482;2022-12-10T15:45:58;8.43;;;6.53;;
7495;SDS011;3789;47.064;15.482;2022-12-10T15:48:33;8.90;;;6.37;;
7495;SDS011;3789;47.064;15.482;2022-12-10T15:51:02;6.60;;;5.93;;
7495;SDS011;3789;47.064;15.482;2022-12-10T15:53:34;6.90;;;5.60;;
7495;SDS011;3789;47.064;15.482;2022-12-10T15:56:08;6.17;;;5.67;;
7495;SDS011;3789;47.064;15.482;2022-12-10T15:58:42;8.23;;;6.10;;
7495;SDS011;3789;47.064;15.482;2022-12-10T16:01:14;6.10;;;5.23;;
7495;SDS011;3789;47.064;15.482;2022-12-10T16:03:44;9.30;;;8.33;;
7495;SDS011;3789;47.064;15.482;2022-12-10T16:06:21;10.47;;;7.97;;
7495;SDS011;3789;47.064;15.482;2022-12-10T16:08:51;11.63;;;8.60;;
7495;SDS011;3789;47.064;15.482;2022-12-10T16:11:21;9.80;;;8.13;;
7495;SDS011;3789;47.064;15.482;2022-12-10T16:13:53;10.83;;;9.63;;
7495;SDS011;3789;47.064;15.482;2022-12-10T16:16:28;11.27;;;9.27;;
7495;SDS011;3789;47.064;15.482;2022-12-10T16:18:59;11.70;;;9.60;;
7495;SDS011;3789;47.064;15.482;2022-12-10T16:21:28;11.77;;;10.10;;
7495;SDS011;3789;47.064;15.482;2022-12-10T16:23:57;13.67;;;11.70;;
7495;SDS011;3789;47.064;15.482;2022-12-10T16:26:25;13.33;;;10.87;;
7495;SDS011;3789;47.064;15.482;2022-12-10T16:28:54;13.43;;;9.80;;
7495;SDS011;3789;47.064;15.482;2022-12-10T16:31:25;13.27;;;10.97;;
7495;SDS011;3789;47.064;15.482;2022-12-10T16:33:55;14.27;;;10.47;;
7495;SDS011;3789;47.064;15.482;2022-12-10T16:36:33;11.43;;;9.73;;
7495;SDS011;3789;47.064;15.482;2022-12-10T16:39:03;11.43;;;9.90;;
7495;SDS011;3789;47.064;15.482;2022-12-10T16:41:34;10.73;;;9.50;;
7495;SDS011;3789;47.064;15.482;2022-12-10T16:44:03;11.63;;;10.37;;
7495;SDS011;3789;47.064;15.482;2022-12-10T16:46:33;12.20;;;10.17;;
7495;SDS011;3789;47.064;15.482;2022-12-10T16:49:03;13.60;;;10.67;;
7495;SDS011;3789;47.064;15.482;2022-12-10T16:51:34;12.10;;;10.77;;
7495;SDS011;3789;47.064;15.482;2022-12-10T16:54:03;11.57;;;9.40;;
7495;SDS011;3789;47.064;15.482;2022-12-10T16:56:35;10.73;;;9.27;;
7495;SDS011;3789;47.064;15.482;2022-12-10T16:59:05;10.93;;;8.77;;
7495;SDS011;3789;47.064;15.482;2022-12-10T17:01:35;10.77;;;9.23;;
7495;SDS011;3789;47.064;15.482;2022-12-10T17:04:11;10.63;;;8.90;;
7495;SDS011;3789;47.064;15.482;2022-12-10T17:06:47;10.43;;;8.63;;
7495;SDS011;3789;47.064;15.482;2022-12-10T17:09:15;7.60;;;6.77;;
7495;SDS011;3789;47.064;15.482;2022-12-10T17:11:44;8.30;;;7.03;;
7495;SDS011;3789;47.064;15.482;2022-12-10T17:14:33;7.17;;;5.80;;
7495;SDS011;3789;47.064;15.482;2022-12-10T17:17:08;7.43;;;6.53;;
7495;SDS011;3789;47.064;15.482;2022-12-10T17:19:44;8.10;;;6.63;;
7495;SDS011;3789;47.064;15.482;2022-12-10T17:22:15;8.30;;;6.13;;
7495;SDS011;3789;47.064;15.482;2022-12-10T17:24:51;8.17;;;6.63;;
7495;SDS011;3789;47.064;15.482;2022-12-10T17:27:19;10.53;;;6.33;;
7495;SDS011;3789;47.064;15.482;2022-12-10T17:29:50;9.27;;;6.53;;
7495;SDS011;3789;47.064;15.482;2022-12-10T17:32:24;8.80;;;6.87;;
7495;SDS011;3789;47.064;15.482;2022-12-10T17:34:57;8.00;;;6.93;;
7495;SDS011;3789;47.064;15.482;2022-12-10T17:37:30;8.23;;;7.30;;
7495;SDS011;3789;47.064;15.482;2022-12-10T17:40:12;10.17;;;7.70;;